Cordeiros, Brazil
Current Conditions -  °F | °C
As of 10:25 PM on Saturday 20 Dec 2014 (Local Time) from SBQV Reporting Station
Scattered Clouds Scattered Clouds  
Wind Chill: 72°   Ceiling: Unl
Heat Index: 72°   Visibility: 6mi
Dew Point: 68°   Wind: 9mph
Humidity: 88%   Direction: 80°E
Pressure: 30.09"   Gusts: NA
Location:  15.04°S, 41.93°W
Report Text: SBQV 210125Z 08008KT 9999 SCT007 22/20 Q1019
Loading
Personal Weather Stations






























Interactive Weather Map New forecast layout! Learn more

10-Day Weather Forecast

Advertisements
Track Severe Weather on mobile